Map

Track Data

SID SEASON NUMBER BASIN SUBBASIN NAME ISO_TIME NATURE LAT LON WMO_WIND WMO_PRES WMO_AGENCY TRACK_TYPE DIST2LAND LANDFALL IFLAG USA_AGENCY USA_ATCF_ID USA_LAT USA_LON USA_RECORD USA_STATUS USA_WIND USA_PRES USA_SSHS USA_R34_NE USA_R34_SE USA_R34_SW USA_R34_NW USA_R50_NE USA_R50_SE USA_R50_SW USA_R50_NW USA_R64_NE USA_R64_SE USA_R64_SW USA_R64_NW USA_POCI USA_ROCI USA_RMW USA_EYE TOKYO_LAT TOKYO_LON TOKYO_GRADE TOKYO_WIND TOKYO_PRES TOKYO_R50_DIR TOKYO_R50_LONG TOKYO_R50_SHORT TOKYO_R30_DIR TOKYO_R30_LONG TOKYO_R30_SHORT TOKYO_LAND CMA_LAT CMA_LON CMA_CAT CMA_WIND CMA_PRES HKO_LAT HKO_LON HKO_CAT HKO_WIND HKO_PRES NEWDELHI_LAT NEWDELHI_LON NEWDELHI_GRADE NEWDELHI_WIND NEWDELHI_PRES NEWDELHI_CI NEWDELHI_DP NEWDELHI_POCI REUNION_LAT REUNION_LON REUNION_TYPE REUNION_WIND REUNION_PRES REUNION_TNUM REUNION_CI REUNION_RMW REUNION_R34_NE REUNION_R34_SE REUNION_R34_SW REUNION_R34_NW REUNION_R50_NE REUNION_R50_SE REUNION_R50_SW REUNION_R50_NW REUNION_R64_NE REUNION_R64_SE REUNION_R64_SW REUNION_R64_NW BOM_LAT BOM_LON BOM_TYPE BOM_WIND BOM_PRES BOM_TNUM BOM_CI BOM_RMW BOM_R34_NE BOM_R34_SE BOM_R34_SW BOM_R34_NW BOM_R50_NE BOM_R50_SE BOM_R50_SW BOM_R50_NW BOM_R64_NE BOM_R64_SE BOM_R64_SW BOM_R64_NW BOM_ROCI BOM_POCI BOM_EYE BOM_POS_METHOD BOM_PRES_METHOD NADI_LAT NADI_LON NADI_CAT NADI_WIND NADI_PRES WELLINGTON_LAT WELLINGTON_LON WELLINGTON_WIND WELLINGTON_PRES DS824_LAT DS824_LON DS824_STAGE DS824_WIND DS824_PRES TD9636_LAT TD9636_LON TD9636_STAGE TD9636_WIND TD9636_PRES TD9635_LAT TD9635_LON TD9635_WIND TD9635_PRES TD9635_ROCI NEUMANN_LAT NEUMANN_LON NEUMANN_CLASS NEUMANN_WIND NEUMANN_PRES MLC_LAT MLC_LON MLC_CLASS MLC_WIND MLC_PRES USA_GUST BOM_GUST BOM_GUST_PER REUNION_GUST REUNION_GUST_PER USA_SEAHGT USA_SEARAD_NE USA_SEARAD_SE USA_SEARAD_SW USA_SEARAD_NW STORM_SPEED STORM_DIR
1918032S14061 1918 11 SI MM NOT_NAMED 1918-02-01 06:00:00 NR -13.6000 61.2000 reunion main 817 797 _____O________ -1 -13.6000 61.2000 99 9.90000 4 244
1918032S14061 1918 11 SI MM NOT_NAMED 1918-02-01 09:00:00 NR -13.6769 61.0379 main 797 792 _____P________ -1 -13.6769 61.0379 99 4 244
1918032S14061 1918 11 SI MM NOT_NAMED 1918-02-01 12:00:00 NR -13.7535 60.8769 main 782 773 _____P________ -1 -13.7535 60.8769 99 3 244
1918032S14061 1918 11 SI MM NOT_NAMED 1918-02-01 15:00:00 NR -13.8298 60.7182 main 773 759 _____P________ -1 -13.8298 60.7182 99 3 243
1918032S14061 1918 11 SI MM NOT_NAMED 1918-02-01 18:00:00 NR -13.9055 60.5629 main 759 740 _____P________ -1 -13.9055 60.5629 99 3 243
1918032S14061 1918 11 SI MM NOT_NAMED 1918-02-01 21:00:00 NR -13.9805 60.4122 main 740 726 _____P________ -1 -13.9805 60.4122 99 3 243
1918032S14061 1918 11 SI MM NOT_NAMED 1918-02-02 00:00:00 NR -14.0546 60.2674 main 726 718 _____P________ -1 -14.0546 60.2674 99 3 242
1918032S14061 1918 11 SI MM NOT_NAMED 1918-02-02 03:00:00 NR -14.1279 60.1296 main 718 703 _____P________ -1 -14.1279 60.1296 99 3 241
1918032S14061 1918 11 SI MM NOT_NAMED 1918-02-02 06:00:00 NR -14.2000 60.0000 reunion main 703 689 _____O________ -1 -14.2000 60.0000 99 9.90000 3 240
1918032S14061 1918 11 SI MM NOT_NAMED 1918-02-02 09:00:00 NR -14.2709 59.8794 main 689 686 _____P________ -1 -14.2709 59.8794 99 3 239
1918032S14061 1918 11 SI MM NOT_NAMED 1918-02-02 12:00:00 NR -14.3401 59.7671 main 686 672 _____P________ -1 -14.3401 59.7671 99 3 237
1918032S14061 1918 11 SI MM NOT_NAMED 1918-02-02 15:00:00 NR -14.4074 59.6618 main 672 658 _____P________ -1 -14.4074 59.6618 99 2 236
1918032S14061 1918 11 SI MM NOT_NAMED 1918-02-02 18:00:00 NR -14.4723 59.5624 main 658 655 _____P________ -1 -14.4723 59.5624 99 2 236
1918032S14061 1918 11 SI MM NOT_NAMED 1918-02-02 21:00:00 NR -14.5344 59.4677 main 655 641 _____P________ -1 -14.5344 59.4677 99 2 236
1918032S14061 1918 11 SI MM NOT_NAMED 1918-02-03 00:00:00 NR -14.5933 59.3765 main 641 638 _____P________ -1 -14.5933 59.3765 99 2 236
1918032S14061 1918 11 SI MM NOT_NAMED 1918-02-03 03:00:00 NR -14.6486 59.2877 main 638 624 _____P________ -1 -14.6486 59.2877 99 2 238
1918032S14061 1918 11 SI MM NOT_NAMED 1918-02-03 06:00:00 NR -14.7000 59.2000 reunion main 624 622 _____O________ -1 -14.7000 59.2000 99 9.90000 2 240
1918032S14061 1918 11 SI MM NOT_NAMED 1918-02-03 09:00:00 NR -14.7468 59.1078 main 622 608 _____P________ -1 -14.7468 59.1078 99 2 243
1918032S14061 1918 11 SI MM NOT_NAMED 1918-02-03 12:00:00 NR -14.7893 59.0177 main 608 606 _____P________ -1 -14.7893 59.0177 99 2 245
1918032S14061 1918 11 SI MM NOT_NAMED 1918-02-03 15:00:00 NR -14.8284 58.9294 main 606 593 _____P________ -1 -14.8284 58.9294 99 2 246
1918032S14061 1918 11 SI MM NOT_NAMED 1918-02-03 18:00:00 NR -14.8649 58.8424 main 593 593 _____P________ -1 -14.8649 58.8424 99 2 247
1918032S14061 1918 11 SI MM NOT_NAMED 1918-02-03 21:00:00 NR -14.8995 58.7563 main 593 591 _____P________ -1 -14.8995 58.7563 99 2 248
1918032S14061 1918 11 SI MM NOT_NAMED 1918-02-04 00:00:00 NR -14.9331 58.6708 main 591 578 _____P________ -1 -14.9331 58.6708 99 2 248
1918032S14061 1918 11 SI MM NOT_NAMED 1918-02-04 03:00:00 NR -14.9663 58.5855 main 578 576 _____P________ -1 -14.9663 58.5855 99 2 248
1918032S14061 1918 11 SI MM NOT_NAMED 1918-02-04 06:00:00 NR -15.0000 58.5000 reunion main 576 575 _____O________ -1 -15.0000 58.5000 99 9.90000 2 248
1918032S14061 1918 11 SI MM NOT_NAMED 1918-02-04 09:00:00 NR -15.0336 58.4144 main 575 563 _____P________ -1 -15.0336 58.4144 99 2 248
1918032S14061 1918 11 SI MM NOT_NAMED 1918-02-04 12:00:00 NR -15.0668 58.3290 main 563 561 _____P________ -1 -15.0668 58.3290 99 2 248
1918032S14061 1918 11 SI MM NOT_NAMED 1918-02-04 15:00:00 NR -15.1003 58.2434 main 561 561 _____P________ -1 -15.1003 58.2434 99 2 248
1918032S14061 1918 11 SI MM NOT_NAMED 1918-02-04 18:00:00 NR -15.1349 58.1573 main 561 549 _____P________ -1 -15.1349 58.1573 99 2 247
1918032S14061 1918 11 SI MM NOT_NAMED 1918-02-04 21:00:00 NR -15.1714 58.0704 main 549 549 _____P________ -1 -15.1714 58.0704 99 2 246
1918032S14061 1918 11 SI MM NOT_NAMED 1918-02-05 00:00:00 NR -15.2106 57.9821 main 549 537 _____P________ -1 -15.2106 57.9821 99 2 244
1918032S14061 1918 11 SI MM NOT_NAMED 1918-02-05 03:00:00 NR -15.2532 57.8921 main 537 537 _____P________ -1 -15.2532 57.8921 99 2 243
1918032S14061 1918 11 SI MM NOT_NAMED 1918-02-05 06:00:00 NR -15.3000 57.8000 reunion main 537 537 _____O________ -1 -15.3000 57.8000 99 9.90000 2 240
1918032S14061 1918 11 SI MM NOT_NAMED 1918-02-05 09:00:00 NR -15.3512 57.7122 main 525 525 _____P________ -1 -15.3512 57.7122 99 2 238
1918032S14061 1918 11 SI MM NOT_NAMED 1918-02-05 12:00:00 NR -15.4064 57.6233 main 525 514 _____P________ -1 -15.4064 57.6233 99 2 236
1918032S14061 1918 11 SI MM NOT_NAMED 1918-02-05 15:00:00 NR -15.4652 57.5321 main 514 514 _____P________ -1 -15.4652 57.5321 99 2 236
1918032S14061 1918 11 SI MM NOT_NAMED 1918-02-05 18:00:00 NR -15.5273 57.4373 main 514 503 _____P________ -1 -15.5273 57.4373 99 2 235
1918032S14061 1918 11 SI MM NOT_NAMED 1918-02-05 21:00:00 NR -15.5922 57.3379 main 503 493 _____P________ -1 -15.5922 57.3379 99 2 236
1918032S14061 1918 11 SI MM NOT_NAMED 1918-02-06 00:00:00 NR -15.6595 57.2327 main 493 493 _____P________ -1 -15.6595 57.2327 99 3 237
1918032S14061 1918 11 SI MM NOT_NAMED 1918-02-06 03:00:00 NR -15.7289 57.1204 main 494 482 _____P________ -1 -15.7289 57.1204 99 3 238
1918032S14061 1918 11 SI MM NOT_NAMED 1918-02-06 06:00:00 NR -15.8000 57.0000 reunion main 484 474 _____O________ -1 -15.8000 57.0000 99 9.90000 3 240
1918032S14061 1918 11 SI MM NOT_NAMED 1918-02-06 09:00:00 NR -15.8704 56.8667 main 474 474 _____P________ -1 -15.8704 56.8667 99 3 242
1918032S14061 1918 11 SI MM NOT_NAMED 1918-02-06 12:00:00 NR -15.9429 56.7247 main 477 466 _____P________ -1 -15.9429 56.7247 99 3 242
1918032S14061 1918 11 SI MM NOT_NAMED 1918-02-06 15:00:00 NR -16.0171 56.5760 main 468 459 _____P________ -1 -16.0171 56.5760 99 3 243
1918032S14061 1918 11 SI MM NOT_NAMED 1918-02-06 18:00:00 NR -16.0926 56.4225 main 462 454 _____P________ -1 -16.0926 56.4225 99 3 243
1918032S14061 1918 11 SI MM NOT_NAMED 1918-02-06 21:00:00 NR -16.1690 56.2662 main 454 454 _____P________ -1 -16.1690 56.2662 99 3 243
1918032S14061 1918 11 SI MM NOT_NAMED 1918-02-07 00:00:00 NR -16.2460 56.1091 main 460 450 _____P________ -1 -16.2460 56.1091 99 3 243
1918032S14061 1918 11 SI MM NOT_NAMED 1918-02-07 03:00:00 NR -16.3231 55.9530 main 453 447 _____P________ -1 -16.3231 55.9530 99 3 242
1918032S14061 1918 11 SI MM NOT_NAMED 1918-02-07 06:00:00 NR -16.4000 55.8000 reunion main 451 445 _____O________ -1 -16.4000 55.8000 99 9.90000 3 241
1918032S14061 1918 11 SI MM NOT_NAMED 1918-02-07 09:00:00 NR -16.4670 55.6766 main 445 445 _____P________ -1 -16.4670 55.6766 99 3 240
1918032S14061 1918 11 SI MM NOT_NAMED 1918-02-07 12:00:00 NR -16.5331 55.5578 main 449 444 _____P________ -1 -16.5331 55.5578 99 3 240
1918032S14061 1918 11 SI MM NOT_NAMED 1918-02-07 15:00:00 NR -16.5999 55.4391 main 449 445 _____P________ -1 -16.5999 55.4391 99 3 240
1918032S14061 1918 11 SI MM NOT_NAMED 1918-02-07 18:00:00 NR -16.6690 55.3164 main 445 445 _____P________ -1 -16.6690 55.3164 99 3 240
1918032S14061 1918 11 SI MM NOT_NAMED 1918-02-07 21:00:00 NR -16.7420 55.1855 main 451 441 _____P________ -1 -16.7420 55.1855 99 3 240
1918032S14061 1918 11 SI MM NOT_NAMED 1918-02-08 00:00:00 NR -16.8204 55.0419 main 453 444 _____P________ -1 -16.8204 55.0419 99 3 241
1918032S14061 1918 11 SI MM NOT_NAMED 1918-02-08 03:00:00 NR -16.9059 54.8816 main 450 448 _____P________ -1 -16.9059 54.8816 99 4 241
1918032S14061 1918 11 SI MM NOT_NAMED 1918-02-08 06:00:00 NR -17.0000 54.7000 reunion main 451 442 _____O________ -1 -17.0000 54.7000 99 9.90000 4 243
1918032S14061 1918 11 SI MM NOT_NAMED 1918-02-08 09:00:00 NR -17.0987 54.4934 main 444 435 _____P________ -1 -17.0987 54.4934 99 5 244
1918032S14061 1918 11 SI MM NOT_NAMED 1918-02-08 12:00:00 NR -17.2050 54.2668 main 437 428 _____P________ -1 -17.2050 54.2668 99 5 244
1918032S14061 1918 11 SI MM NOT_NAMED 1918-02-08 15:00:00 NR -17.3186 54.0222 main 428 413 _____P________ -1 -17.3186 54.0222 99 5 244
1918032S14061 1918 11 SI MM NOT_NAMED 1918-02-08 18:00:00 NR -17.4398 53.7617 main 413 389 _____P________ -1 -17.4398 53.7617 99 6 244
1918032S14061 1918 11 SI MM NOT_NAMED 1918-02-08 21:00:00 NR -17.5685 53.4872 main 394 371 _____P________ -1 -17.5685 53.4872 99 6 244
1918032S14061 1918 11 SI MM NOT_NAMED 1918-02-09 00:00:00 NR -17.7047 53.2008 main 371 347 _____P________ -1 -17.7047 53.2008 99 6 243
1918032S14061 1918 11 SI MM NOT_NAMED 1918-02-09 03:00:00 NR -17.8485 52.9044 main 347 326 _____P________ -1 -17.8485 52.9044 99 6 243
1918032S14061 1918 11 SI MM NOT_NAMED 1918-02-09 06:00:00 NR -18.0000 52.6000 reunion main 326 299 _____O________ -1 -18.0000 52.6000 99 9.90000 6 242
1918032S14061 1918 11 SI MM NOT_NAMED 1918-02-09 09:00:00 NR -18.1423 52.3220 main 299 280 _____P________ -1 -18.1423 52.3220 99 6 241
1918032S14061 1918 11 SI MM NOT_NAMED 1918-02-09 12:00:00 NR -18.2914 52.0366 main 272 254 _____P________ -1 -18.2914 52.0366 99 6 241
1918032S14061 1918 11 SI MM NOT_NAMED 1918-02-09 15:00:00 NR -18.4485 51.7407 main 243 215 _____P________ -1 -18.4485 51.7407 99 7 241
1918032S14061 1918 11 SI MM NOT_NAMED 1918-02-09 18:00:00 NR -18.6151 51.4314 main 215 191 _____P________ -1 -18.6151 51.4314 99 7 240
1918032S14061 1918 11 SI MM NOT_NAMED 1918-02-09 21:00:00 NR -18.7923 51.1057 main 191 167 _____P________ -1 -18.7923 51.1057 99 7 240
1918032S14061 1918 11 SI MM NOT_NAMED 1918-02-10 00:00:00 NR -18.9813 50.7607 main 171 138 _____P________ -1 -18.9813 50.7607 99 8 240
1918032S14061 1918 11 SI MM NOT_NAMED 1918-02-10 03:00:00 NR -19.1835 50.3931 main 138 104 _____P________ -1 -19.1835 50.3931 99 8 240
1918032S14061 1918 11 SI MM NOT_NAMED 1918-02-10 06:00:00 NR -19.4000 50.0000 reunion main 104 66 _____O________ -1 -19.4000 50.0000 99 9.90000 9 241
1918032S14061 1918 11 SI MM NOT_NAMED 1918-02-10 09:00:00 NR -19.6418 49.5142 main 66 20 _____P________ -1 -19.6418 49.5142 99 11 242
1918032S14061 1918 11 SI MM NOT_NAMED 1918-02-10 12:00:00 NR -19.8993 48.9932 main 20 0 _____P________ -1 -19.8993 48.9932 99 11 242
1918032S14061 1918 11 SI MM NOT_NAMED 1918-02-10 15:00:00 NR -20.1676 48.4541 main 0 0 _____P________ -1 -20.1676 48.4541 99 12 242
1918032S14061 1918 11 SI MM NOT_NAMED 1918-02-10 18:00:00 NR -20.4415 47.9143 main 0 0 _____P________ -1 -20.4415 47.9143 99 11 241
1918032S14061 1918 11 SI MM NOT_NAMED 1918-02-10 21:00:00 NR -20.7162 47.3912 main 0 0 _____P________ -1 -20.7162 47.3912 99 11 240
1918032S14061 1918 11 SI MM NOT_NAMED 1918-02-11 00:00:00 NR -20.9871 46.9025 main 0 0 _____P________ -1 -20.9871 46.9025 99 10 238
1918032S14061 1918 11 SI MM NOT_NAMED 1918-02-11 03:00:00 NR -21.2498 46.4661 main 0 0 _____P________ -1 -21.2498 46.4661 99 9 236
1918032S14061 1918 11 SI MM NOT_NAMED 1918-02-11 06:00:00 NR -21.5000 46.1000 reunion main 0 0 _____O________ -1 -21.5000 46.1000 99 9.90000 8 235
1918032S14061 1918 11 SI MM NOT_NAMED 1918-02-11 09:00:00 NR -21.6862 45.7892 main 0 0 _____P________ -1 -21.6862 45.7892 99 6 236
1918032S14061 1918 11 SI MM NOT_NAMED 1918-02-11 12:00:00 NR -21.8582 45.5377 main 0 0 _____P________ -1 -21.8582 45.5377 99 5 230
1918032S14061 1918 11 SI MM NOT_NAMED 1918-02-11 15:00:00 NR -22.0252 45.3477 main 0 0 _____P________ -1 -22.0252 45.3477 99 4 221
1918032S14061 1918 11 SI MM NOT_NAMED 1918-02-11 18:00:00 NR -22.1962 45.2216 main 0 0 _____P________ -1 -22.1962 45.2216 99 4 206
1918032S14061 1918 11 SI MM NOT_NAMED 1918-02-11 21:00:00 NR -22.3803 45.1614 main 0 0 _____P________ -1 -22.3803 45.1614 99 4 185
1918032S14061 1918 11 SI MM NOT_NAMED 1918-02-12 00:00:00 NR -22.5864 45.1695 main 0 0 _____P________ -1 -22.5864 45.1695 99 5 170
1918032S14061 1918 11 SI MM NOT_NAMED 1918-02-12 03:00:00 NR -22.8233 45.2482 main 0 0 _____P________ -1 -22.8233 45.2482 99 6 157
1918032S14061 1918 11 SI MM NOT_NAMED 1918-02-12 06:00:00 NR -23.1000 45.4000 reunion main 0 0 _____O________ -1 -23.1000 45.4000 99 9.90000 8 151
1918032S14061 1918 11 SI MM NOT_NAMED 1918-02-12 09:00:00 NR -23.4953 45.6537 main 0 0 _____P________ -1 -23.4953 45.6537 99 10 147
1918032S14061 1918 11 SI MM NOT_NAMED 1918-02-12 12:00:00 NR -23.9351 45.9955 main 0 0 _____P________ -1 -23.9351 45.9955 99 11 143
1918032S14061 1918 11 SI MM NOT_NAMED 1918-02-12 15:00:00 NR -24.4012 46.4029 main 0 0 _____P________ -1 -24.4012 46.4029 99 12 140
1918032S14061 1918 11 SI MM NOT_NAMED 1918-02-12 18:00:00 NR -24.8754 46.8529 main 0 0 _____P________ -1 -24.8754 46.8529 99 13 138
1918032S14061 1918 11 SI MM NOT_NAMED 1918-02-12 21:00:00 NR -25.3399 47.3221 main 37 37 _____P________ -1 -25.3399 47.3221 99 12 137
1918032S14061 1918 11 SI MM NOT_NAMED 1918-02-13 00:00:00 NR -25.7770 47.7862 main 112 112 _____P________ -1 -25.7770 47.7862 99 12 136
1918032S14061 1918 11 SI MM NOT_NAMED 1918-02-13 03:00:00 NR -26.1693 48.2206 main 171 171 _____P________ -1 -26.1693 48.2206 99 10 135
1918032S14061 1918 11 SI MM NOT_NAMED 1918-02-13 06:00:00 NR -26.5000 48.6000 reunion main 223 223 _____O________ -1 -26.5000 48.6000 99 9.90000 9 134
1918032S14061 1918 11 SI MM NOT_NAMED 1918-02-13 09:00:00 NR -26.7568 48.9046 main 268 268 _____P________ -1 -26.7568 48.9046 99 7 133
1918032S14061 1918 11 SI MM NOT_NAMED 1918-02-13 12:00:00 NR -26.9455 49.1380 main 290 290 _____P________ -1 -26.9455 49.1380 99 5 132
1918032S14061 1918 11 SI MM NOT_NAMED 1918-02-13 15:00:00 NR -27.0762 49.3098 main 320 320 _____P________ -1 -27.0762 49.3098 99 3 129
1918032S14061 1918 11 SI MM NOT_NAMED 1918-02-13 18:00:00 NR -27.1586 49.4301 main 335 335 _____P________ -1 -27.1586 49.4301 99 2 126
1918032S14061 1918 11 SI MM NOT_NAMED 1918-02-13 21:00:00 NR -27.2025 49.5089 main 342 342 _____P________ -1 -27.2025 49.5089 99 1 118
1918032S14061 1918 11 SI MM NOT_NAMED 1918-02-14 00:00:00 NR -27.2177 49.5566 main 349 349 _____P________ -1 -27.2177 49.5566 99 1 99
1918032S14061 1918 11 SI MM NOT_NAMED 1918-02-14 03:00:00 NR -27.2136 49.5835 main 349 349 _____P________ -1 -27.2136 49.5835 99 0 63
1918032S14061 1918 11 SI MM NOT_NAMED 1918-02-14 06:00:00 NR -27.2000 49.6000 reunion main 349 _____O________ -1 -27.2000 49.6000 99 9.90000 0 0

About IBTrACS Database

This database is a web-friendly format of International Best Track Archive for Climate Stewardship (IBTrACS), a global best track data archive curated by NOAA dating back to 1842.

Updated: 2021-10-19